createdAt,value
2018-09-19T06:00:19.968Z,14.80
2018-09-19T06:02:48.069Z,15.30
2018-09-19T06:05:16.231Z,15.60
2018-09-19T06:07:45.473Z,15.80
2018-09-19T06:10:13.608Z,16.30
2018-09-19T06:12:41.792Z,17.00
2018-09-19T06:15:09.832Z,17.60
2018-09-19T06:17:37.959Z,18.40
2018-09-19T06:20:06.115Z,19.00
2018-09-19T06:22:34.249Z,19.30
2018-09-19T06:25:02.354Z,19.20
2018-09-19T06:27:30.561Z,19.00
2018-09-19T06:29:58.801Z,18.70
2018-09-19T06:32:26.982Z,18.50
2018-09-19T06:34:55.154Z,19.00
2018-09-19T06:37:23.243Z,20.00
2018-09-19T06:39:51.354Z,20.80
2018-09-19T06:42:19.356Z,21.20
2018-09-19T06:44:47.443Z,20.80
2018-09-19T06:47:15.538Z,20.30
2018-09-19T06:49:43.644Z,19.70
2018-09-19T06:52:11.755Z,19.20
2018-09-19T06:54:39.863Z,18.70
2018-09-19T06:57:07.968Z,18.30
2018-09-19T06:59:36.104Z,18.10
2018-09-19T07:02:04.160Z,18.00
2018-09-19T07:04:32.195Z,18.00
2018-09-19T07:07:00.344Z,18.00
2018-09-19T07:09:28.415Z,18.20
2018-09-19T07:11:56.535Z,18.30
2018-09-19T07:14:25.396Z,18.50
2018-09-19T07:16:53.460Z,18.80
2018-09-19T07:19:21.552Z,19.40
2018-09-19T07:21:49.722Z,20.00
2018-09-19T07:24:17.782Z,20.90
2018-09-19T07:26:45.839Z,22.20
2018-09-19T07:29:13.885Z,23.60
2018-09-19T07:31:41.956Z,24.50
2018-09-19T07:34:10.007Z,24.50
2018-09-19T07:36:38.076Z,24.70
2018-09-19T07:39:08.178Z,24.90
2018-09-19T07:41:36.227Z,24.50
2018-09-19T07:44:04.305Z,23.60
2018-09-19T07:46:32.407Z,23.40
2018-09-19T07:49:00.502Z,24.20
2018-09-19T07:51:28.662Z,24.70
2018-09-19T07:53:56.726Z,25.00
2018-09-19T07:56:24.797Z,25.50
2018-09-19T07:58:53.064Z,26.70
2018-09-19T08:01:21.216Z,27.50
2018-09-19T08:03:49.236Z,27.60
2018-09-19T08:06:17.317Z,27.80
2018-09-19T08:08:45.388Z,28.00
2018-09-19T08:11:13.455Z,28.30
2018-09-19T08:13:41.604Z,28.30
2018-09-19T08:16:09.678Z,28.50
2018-09-19T08:18:37.734Z,28.40
2018-09-19T08:21:05.842Z,28.40
2018-09-19T08:23:33.893Z,28.70
2018-09-19T08:26:01.949Z,28.90
2018-09-19T08:28:30.023Z,28.90
2018-09-19T08:30:58.083Z,29.00
2018-09-19T08:33:26.134Z,29.00
2018-09-19T08:35:54.190Z,29.60
2018-09-19T08:38:22.291Z,29.40
2018-09-19T08:40:50.386Z,29.10
2018-09-19T08:43:18.445Z,29.60
2018-09-19T08:45:46.521Z,30.50
2018-09-19T08:48:14.564Z,31.00
2018-09-19T08:50:42.646Z,31.20
2018-09-19T08:53:12.681Z,30.50
2018-09-19T08:55:40.807Z,30.60
2018-09-19T08:58:09.190Z,31.40
2018-09-19T09:00:37.275Z,32.10
2018-09-19T09:03:05.723Z,32.70
2018-09-19T09:05:34.061Z,33.10
2018-09-19T09:08:02.054Z,33.50
2018-09-19T09:10:30.104Z,33.20
2018-09-19T09:12:58.183Z,33.70
2018-09-19T09:15:26.261Z,34.60
2018-09-19T09:17:55.274Z,34.00
2018-09-19T09:20:23.826Z,34.00
2018-09-19T09:22:52.035Z,33.30
2018-09-19T09:25:20.285Z,34.00
2018-09-19T09:27:48.450Z,35.40
2018-09-19T09:30:16.764Z,35.30
2018-09-19T09:32:44.999Z,34.40
2018-09-19T09:35:13.212Z,34.60
2018-09-19T09:37:41.387Z,34.00
2018-09-19T09:40:09.528Z,32.80
2018-09-19T09:42:37.704Z,32.50
2018-09-19T09:45:05.892Z,33.00
2018-09-19T09:47:34.135Z,34.10
2018-09-19T09:50:02.400Z,35.00
2018-09-19T09:52:30.599Z,35.00
2018-09-19T09:54:58.805Z,34.40
2018-09-19T09:57:27.048Z,34.10
2018-09-19T09:59:55.312Z,33.30
2018-09-19T10:02:23.435Z,32.80
2018-09-19T10:04:51.700Z,32.50
2018-09-19T10:07:19.866Z,31.90
2018-09-19T10:09:48.012Z,32.10
2018-09-19T10:12:16.272Z,32.40
2018-09-19T10:14:44.541Z,32.80
2018-09-19T10:17:12.688Z,32.40
2018-09-19T10:19:40.950Z,32.30
2018-09-19T10:22:09.187Z,32.00
2018-09-19T10:24:37.395Z,32.60
2018-09-19T10:27:05.678Z,33.70
2018-09-19T10:29:33.911Z,34.00
2018-09-19T10:32:02.177Z,34.80
2018-09-19T10:34:30.418Z,35.50
2018-09-19T10:36:58.606Z,34.80
2018-09-19T10:39:26.838Z,34.50
2018-09-19T10:41:54.976Z,34.70
2018-09-19T10:44:23.180Z,34.70
2018-09-19T10:46:51.313Z,34.70
2018-09-19T10:49:19.463Z,35.20
2018-09-19T10:51:47.617Z,35.40
2018-09-19T10:54:15.743Z,35.60
2018-09-19T10:56:43.903Z,34.60
2018-09-19T10:59:12.202Z,34.30
2018-09-19T11:01:40.331Z,34.90
2018-09-19T11:04:08.549Z,34.70
2018-09-19T11:06:36.708Z,35.10
2018-09-19T11:11:46.552Z,35.80
2018-09-19T11:14:14.671Z,34.90
2018-09-19T11:16:42.775Z,34.20
2018-09-19T11:19:10.863Z,34.20
2018-09-19T11:21:38.936Z,34.90
2018-09-19T11:24:07.837Z,34.80
2018-09-19T11:26:35.919Z,36.00
2018-09-19T11:29:04.127Z,37.60
2018-09-19T11:31:32.297Z,37.50
2018-09-19T11:34:00.428Z,36.00
2018-09-19T11:36:28.538Z,35.70
2018-09-19T11:38:56.619Z,35.90
2018-09-19T11:41:24.699Z,36.70
2018-09-19T11:43:52.810Z,37.20
2018-09-19T11:46:20.879Z,37.00
2018-09-19T11:48:48.973Z,36.50
2018-09-19T11:51:17.094Z,36.20
2018-09-19T11:53:45.274Z,36.20
2018-09-19T11:56:13.385Z,36.10
2018-09-19T11:58:41.504Z,36.50
2018-09-19T12:01:09.579Z,38.00
2018-09-19T12:03:37.659Z,36.70
2018-09-19T12:06:05.763Z,36.20
2018-09-19T12:08:33.867Z,36.30
2018-09-19T12:11:02.242Z,36.80
2018-09-19T12:13:30.427Z,37.20
2018-09-19T12:15:58.545Z,38.10
2018-09-19T12:18:26.682Z,39.80
2018-09-19T12:20:54.771Z,38.50
2018-09-19T12:23:22.893Z,37.30
2018-09-19T12:25:51.044Z,36.20
2018-09-19T12:28:19.224Z,35.40
2018-09-19T12:30:47.352Z,35.00
2018-09-19T12:33:15.465Z,35.70
2018-09-19T12:35:43.590Z,36.30
2018-09-19T12:38:11.671Z,36.00
2018-09-19T12:40:39.800Z,35.80
2018-09-19T12:43:07.910Z,35.20
2018-09-19T12:45:35.987Z,34.90
2018-09-19T12:48:04.141Z,35.30
2018-09-19T12:50:32.232Z,35.30
2018-09-19T12:53:00.296Z,35.10
2018-09-19T12:55:28.365Z,34.20
2018-09-19T12:57:56.501Z,34.30
2018-09-19T13:00:24.631Z,34.70
2018-09-19T13:02:52.758Z,35.10
2018-09-19T13:05:20.861Z,36.20
2018-09-19T13:07:48.964Z,36.70
2018-09-19T13:10:17.116Z,37.40
2018-09-19T13:12:45.191Z,36.50
2018-09-19T13:15:13.302Z,36.00
2018-09-19T13:17:41.386Z,35.60
2018-09-19T13:20:09.535Z,35.70
2018-09-19T13:22:37.692Z,34.60
2018-09-19T13:25:05.791Z,34.40
2018-09-19T13:27:33.992Z,35.00
2018-09-19T13:30:02.097Z,35.40
2018-09-19T13:32:30.174Z,35.70
2018-09-19T13:34:58.279Z,35.10
2018-09-19T13:37:26.445Z,33.90
2018-09-19T13:39:54.557Z,34.20
2018-09-19T13:42:22.758Z,34.60
2018-09-19T13:44:50.839Z,35.10
2018-09-19T13:47:18.919Z,34.30
2018-09-19T13:49:49.746Z,33.80
2018-09-19T13:52:17.844Z,34.10
2018-09-19T13:54:45.918Z,33.40
2018-09-19T13:57:14.027Z,33.30
2018-09-19T13:59:42.117Z,34.70
2018-09-19T14:02:10.234Z,35.50
2018-09-19T14:04:38.441Z,35.80
2018-09-19T14:07:06.878Z,35.80
2018-09-19T14:09:34.972Z,35.70
2018-09-19T14:12:03.045Z,35.60
2018-09-19T14:14:31.160Z,35.00
2018-09-19T14:16:59.409Z,34.20
2018-09-19T14:19:27.555Z,33.60
2018-09-19T14:21:55.665Z,33.10
2018-09-19T14:24:23.799Z,33.10
2018-09-19T14:26:51.946Z,33.30
2018-09-19T14:29:20.162Z,33.10
2018-09-19T14:31:48.298Z,33.40
2018-09-19T14:34:16.431Z,33.70
2018-09-19T14:36:44.615Z,33.70
2018-09-19T14:39:12.776Z,32.80
2018-09-19T14:41:40.891Z,31.90
2018-09-19T14:44:09.073Z,30.80
2018-09-19T14:46:37.160Z,29.90
2018-09-19T14:49:05.935Z,29.30
2018-09-19T14:51:34.077Z,28.90
2018-09-19T14:54:02.189Z,28.70
2018-09-19T14:56:30.255Z,28.60
2018-09-19T14:58:58.330Z,28.40
2018-09-19T15:01:26.483Z,28.30
2018-09-19T15:03:54.586Z,28.30
2018-09-19T15:06:22.710Z,28.20
2018-09-19T15:08:50.795Z,28.20
2018-09-19T15:11:18.892Z,28.30
2018-09-19T15:13:46.988Z,28.20
2018-09-19T15:16:15.100Z,28.30
2018-09-19T15:18:43.193Z,28.20
2018-09-19T15:21:11.309Z,28.10
2018-09-19T15:23:39.399Z,28.10
2018-09-19T15:26:07.700Z,28.00
2018-09-19T15:28:36.071Z,27.90
2018-09-19T15:31:17.832Z,27.80
2018-09-19T15:33:45.915Z,27.80
2018-09-19T15:36:13.990Z,27.80
2018-09-19T15:38:42.170Z,27.70
2018-09-19T15:41:10.281Z,27.60
2018-09-19T15:43:38.772Z,27.60
2018-09-19T15:46:06.934Z,27.50
2018-09-19T15:48:35.158Z,27.50
2018-09-19T15:51:03.202Z,27.40
2018-09-19T15:53:32.274Z,27.30
2018-09-19T15:56:01.394Z,27.30
2018-09-19T15:58:29.548Z,27.10
2018-09-19T16:00:57.632Z,27.00
2018-09-19T16:03:26.009Z,26.90
2018-09-19T16:05:54.278Z,26.90
2018-09-19T16:08:22.395Z,26.70
2018-09-19T16:10:50.605Z,26.70
2018-09-19T16:13:18.716Z,26.70
2018-09-19T16:15:46.819Z,26.80
2018-09-19T16:18:14.931Z,26.60
2018-09-19T16:20:43.306Z,26.30
2018-09-19T16:23:11.377Z,26.20
2018-09-19T16:25:39.505Z,26.00
2018-09-19T16:28:07.614Z,25.90
2018-09-19T16:30:35.980Z,25.60
2018-09-19T16:33:04.100Z,25.30
2018-09-19T16:35:32.298Z,25.10
2018-09-19T16:38:00.458Z,24.80
2018-09-19T16:40:28.691Z,24.60
2018-09-19T16:42:57.089Z,24.50
2018-09-19T16:45:25.310Z,24.30
2018-09-19T16:47:53.424Z,24.10
2018-09-19T16:50:21.551Z,23.90
2018-09-19T16:52:49.767Z,23.80
2018-09-19T16:55:17.934Z,23.80
2018-09-19T16:57:46.084Z,23.60
2018-09-19T17:00:15.171Z,23.50
2018-09-19T17:02:43.583Z,23.40
2018-09-19T17:05:12.022Z,23.30
2018-09-19T17:07:40.171Z,23.20
2018-09-19T17:10:08.318Z,23.20
2018-09-19T17:12:36.712Z,23.20
2018-09-19T17:15:04.936Z,23.20
2018-09-19T17:17:33.099Z,23.00
2018-09-19T17:20:01.434Z,22.70
2018-09-19T17:22:29.565Z,22.40
2018-09-19T17:24:57.697Z,22.10
2018-09-19T17:27:25.962Z,21.90
2018-09-19T17:29:54.126Z,21.70
2018-09-19T17:32:22.258Z,21.50
2018-09-19T17:34:50.525Z,21.20
2018-09-19T17:37:18.784Z,21.00
2018-09-19T17:39:47.042Z,20.90
2018-09-19T17:42:15.175Z,20.80
2018-09-19T17:44:43.273Z,20.70
2018-09-19T17:47:11.520Z,20.70
2018-09-19T17:49:39.897Z,20.50
2018-09-19T17:52:08.052Z,20.50
2018-09-19T17:54:36.212Z,20.30
2018-09-19T17:57:04.441Z,20.20
2018-09-19T17:59:32.624Z,20.00
2018-09-19T18:02:01.001Z,19.90
2018-09-19T18:04:29.240Z,19.80
2018-09-19T18:06:57.536Z,19.70
2018-09-19T18:09:25.677Z,19.60
2018-09-19T18:11:53.861Z,19.60
2018-09-19T18:14:21.956Z,19.50
2018-09-19T18:16:50.280Z,19.30
2018-09-19T18:19:18.459Z,19.00
2018-09-19T18:21:46.663Z,18.80
2018-09-19T18:24:14.902Z,18.50
2018-09-19T18:26:43.064Z,18.40
2018-09-19T18:29:11.237Z,18.20
2018-09-19T18:31:39.418Z,18.10
2018-09-19T18:34:07.627Z,18.00
2018-09-19T18:36:35.726Z,18.00
2018-09-19T18:39:05.335Z,17.90
2018-09-19T18:41:33.498Z,17.80
2018-09-19T18:44:01.694Z,17.70
2018-09-19T18:46:29.862Z,17.80
2018-09-19T18:48:57.999Z,17.90
2018-09-19T18:51:26.093Z,17.90
2018-09-19T18:53:54.262Z,17.90
2018-09-19T18:56:22.380Z,17.80
2018-09-19T18:58:50.662Z,17.70
2018-09-19T19:01:18.834Z,17.50
2018-09-19T19:03:47.018Z,17.40
2018-09-19T19:06:15.207Z,17.20
2018-09-19T19:08:43.306Z,17.10
2018-09-19T19:11:11.510Z,16.90
2018-09-19T19:13:39.689Z,16.80
2018-09-19T19:16:07.903Z,16.80
2018-09-19T19:18:36.003Z,16.80
2018-09-19T19:21:04.145Z,16.80
2018-09-19T19:23:32.221Z,16.90
2018-09-19T19:26:00.411Z,17.00
2018-09-19T19:28:28.529Z,17.00
2018-09-19T19:30:56.655Z,17.10
2018-09-19T19:33:24.869Z,17.00
2018-09-19T19:35:53.052Z,17.00
2018-09-19T19:38:21.231Z,17.00
2018-09-19T19:40:49.429Z,17.00
2018-09-19T19:43:17.587Z,16.80
2018-09-19T19:45:45.714Z,16.80
2018-09-19T19:48:13.835Z,16.70
2018-09-19T19:50:41.984Z,16.70
2018-09-19T19:53:10.117Z,16.60
2018-09-19T19:55:38.211Z,16.50
2018-09-19T19:58:06.435Z,16.40
2018-09-19T20:00:34.545Z,16.30
2018-09-19T20:03:02.654Z,16.20
2018-09-19T20:05:30.746Z,16.00
2018-09-19T20:07:58.887Z,15.90
2018-09-19T20:10:26.998Z,15.80
2018-09-19T20:12:55.175Z,15.70
2018-09-19T20:15:23.295Z,15.60
2018-09-19T20:17:51.549Z,15.60
2018-09-19T20:20:19.688Z,15.50
2018-09-19T20:22:47.770Z,15.40
2018-09-19T20:25:15.896Z,15.40
2018-09-19T20:27:44.000Z,15.40
2018-09-19T20:30:12.091Z,15.40
2018-09-19T20:32:40.352Z,15.40
2018-09-19T20:35:08.462Z,15.50
2018-09-19T20:37:38.156Z,15.50
2018-09-19T20:40:06.482Z,15.60
2018-09-19T20:42:34.655Z,15.60
2018-09-19T20:45:02.763Z,15.50
2018-09-19T20:47:30.866Z,15.50
2018-09-19T20:49:59.004Z,15.40
2018-09-19T20:52:27.137Z,15.40
2018-09-19T20:54:55.278Z,15.40
2018-09-19T20:57:23.415Z,15.40
2018-09-19T20:59:51.516Z,15.40
2018-09-19T21:02:19.813Z,15.40
2018-09-19T21:04:47.939Z,15.40
2018-09-19T21:07:16.010Z,15.40
2018-09-19T21:09:44.082Z,15.40
2018-09-19T21:12:12.220Z,15.50
2018-09-19T21:14:40.324Z,15.60
2018-09-19T21:17:08.478Z,15.60
2018-09-19T21:19:36.570Z,15.60
2018-09-19T21:22:04.751Z,15.50
2018-09-19T21:24:32.818Z,15.50
2018-09-19T21:27:00.994Z,15.40
2018-09-19T21:29:29.071Z,15.40
2018-09-19T21:31:57.217Z,15.50
2018-09-19T21:34:25.422Z,15.50
2018-09-19T21:36:53.561Z,15.50
2018-09-19T21:42:14.394Z,15.40
2018-09-19T21:44:42.498Z,15.30
2018-09-19T21:47:10.598Z,15.30
2018-09-19T21:49:38.664Z,15.20
2018-09-19T21:52:06.743Z,15.10
2018-09-19T21:54:34.831Z,15.20
2018-09-19T21:57:02.918Z,15.30
2018-09-19T21:59:31.015Z,15.40
2018-09-19T22:02:00.293Z,15.40
2018-09-19T22:04:29.023Z,15.40
2018-09-19T22:06:57.178Z,15.30
2018-09-19T22:09:25.460Z,15.30
2018-09-19T22:11:53.632Z,15.20
2018-09-19T22:14:21.768Z,15.10
2018-09-19T22:16:49.884Z,15.10
2018-09-19T22:19:17.971Z,15.00
2018-09-19T22:21:46.065Z,15.00
2018-09-19T22:24:14.137Z,15.00
2018-09-19T22:26:42.238Z,15.00
2018-09-19T22:29:10.336Z,15.00
2018-09-19T22:31:38.413Z,14.80
2018-09-19T22:34:06.523Z,14.70
2018-09-19T22:36:34.623Z,14.80
2018-09-19T22:39:03.257Z,14.70
2018-09-19T22:41:31.364Z,14.50
2018-09-19T22:43:59.563Z,14.20
2018-09-19T22:46:27.788Z,14.00
2018-09-19T22:48:55.868Z,13.90
2018-09-19T22:51:23.956Z,13.80
2018-09-19T22:53:52.023Z,13.80
2018-09-19T22:56:20.145Z,13.90
2018-09-19T22:58:48.303Z,14.00
2018-09-19T23:01:16.407Z,14.00
2018-09-19T23:03:44.491Z,14.10
2018-09-19T23:06:12.553Z,14.10
2018-09-19T23:08:40.667Z,14.00
2018-09-19T23:11:08.745Z,14.00
2018-09-19T23:13:36.853Z,13.90
2018-09-19T23:16:05.634Z,13.90
2018-09-19T23:18:33.743Z,13.90
2018-09-19T23:21:01.809Z,13.90
2018-09-19T23:23:29.934Z,13.90
2018-09-19T23:25:58.041Z,13.90
2018-09-19T23:28:26.266Z,13.90
2018-09-19T23:30:54.339Z,13.90
2018-09-19T23:33:22.414Z,13.90
2018-09-19T23:35:50.535Z,13.90
2018-09-19T23:38:18.673Z,13.90
2018-09-19T23:40:46.819Z,13.80
2018-09-19T23:43:14.953Z,13.80
2018-09-19T23:45:43.051Z,13.90
2018-09-19T23:48:11.135Z,13.90
2018-09-19T23:50:39.242Z,13.90
2018-09-19T23:53:07.387Z,13.90
2018-09-19T23:55:35.471Z,13.80
2018-09-19T23:58:03.591Z,13.80
